createdAt,value
2019-02-11T00:01:12.591Z,15.07
2019-02-11T00:03:41.911Z,14.47
2019-02-11T00:06:11.894Z,18.60
2019-02-11T00:08:42.245Z,11.83
2019-02-11T00:11:10.315Z,13.77
2019-02-11T00:13:40.403Z,18.50
2019-02-11T00:16:11.826Z,13.70
2019-02-11T00:18:41.797Z,12.77
2019-02-11T00:21:10.438Z,9.80
2019-02-11T00:23:38.814Z,17.40
2019-02-11T00:26:07.119Z,12.20
2019-02-11T00:28:35.769Z,14.50
2019-02-11T00:31:04.147Z,11.37
2019-02-11T00:33:32.592Z,15.37
2019-02-11T00:36:00.968Z,16.53
2019-02-11T00:38:29.342Z,11.40
2019-02-11T00:40:57.660Z,12.53
2019-02-11T00:43:26.004Z,15.83
2019-02-11T00:45:54.368Z,14.97
2019-02-11T00:48:22.683Z,18.73
2019-02-11T00:50:50.941Z,15.07
2019-02-11T00:53:19.294Z,13.53
2019-02-11T00:55:47.584Z,11.70
2019-02-11T00:58:15.903Z,10.63
2019-02-11T01:00:44.264Z,13.20
2019-02-11T01:03:12.638Z,14.70
2019-02-11T01:05:41.043Z,13.07
2019-02-11T01:08:09.330Z,12.23
2019-02-11T01:10:37.706Z,14.10
2019-02-11T01:13:06.080Z,13.20
2019-02-11T01:15:34.455Z,12.93
2019-02-11T01:18:02.762Z,10.67
2019-02-11T01:20:31.144Z,17.50
2019-02-11T01:22:59.544Z,17.53
2019-02-11T01:25:27.831Z,9.27
2019-02-11T01:27:56.139Z,18.73
2019-02-11T01:30:24.547Z,14.20
2019-02-11T01:32:52.903Z,14.20
2019-02-11T01:35:21.196Z,13.13
2019-02-11T01:37:49.590Z,12.97
2019-02-11T01:40:17.961Z,11.57
2019-02-11T01:42:46.274Z,16.00
2019-02-11T01:45:14.650Z,13.93
2019-02-11T01:47:43.052Z,16.90
2019-02-11T01:50:12.587Z,12.37
2019-02-11T01:52:40.949Z,9.33
2019-02-11T01:55:09.337Z,16.30
2019-02-11T01:57:37.716Z,10.57
2019-02-11T02:00:11.850Z,10.30
2019-02-11T02:02:40.202Z,10.87
2019-02-11T02:05:09.398Z,9.30
2019-02-11T02:07:37.781Z,9.20
2019-02-11T02:10:09.488Z,7.50
2019-02-11T02:12:37.880Z,10.70
2019-02-11T02:15:07.760Z,14.27
2019-02-11T02:17:36.152Z,18.00
2019-02-11T02:20:07.405Z,15.00
2019-02-11T02:22:35.762Z,9.27
2019-02-11T02:25:05.582Z,17.97
2019-02-11T02:27:33.974Z,20.00
2019-02-11T02:30:02.634Z,16.93
2019-02-11T02:32:31.000Z,8.60
2019-02-11T02:34:59.377Z,16.37
2019-02-11T02:37:27.696Z,12.87
2019-02-11T02:39:56.053Z,12.73
2019-02-11T02:42:24.444Z,10.50
2019-02-11T02:44:52.810Z,10.30
2019-02-11T02:47:21.468Z,10.13
2019-02-11T02:49:50.156Z,6.33
2019-02-11T02:52:18.532Z,10.80
2019-02-11T02:54:46.932Z,9.20
2019-02-11T02:57:15.287Z,8.93
2019-02-11T02:59:43.943Z,14.53
2019-02-11T03:02:12.323Z,9.97
2019-02-11T03:04:40.708Z,9.57
2019-02-11T03:07:09.091Z,7.93
2019-02-11T03:09:37.439Z,10.30
2019-02-11T03:12:05.828Z,14.83
2019-02-11T03:14:34.206Z,12.43
2019-02-11T03:17:02.584Z,12.20
2019-02-11T03:19:30.985Z,12.93
2019-02-11T03:21:59.359Z,13.93
2019-02-11T03:24:27.645Z,15.40
2019-02-11T03:26:55.956Z,7.80
2019-02-11T03:29:24.325Z,11.90
2019-02-11T03:31:52.721Z,14.97
2019-02-11T03:34:21.000Z,7.43
2019-02-11T03:36:49.310Z,13.60
2019-02-11T03:39:17.772Z,15.03
2019-02-11T03:41:46.139Z,11.20
2019-02-11T03:44:15.397Z,13.30
2019-02-11T03:46:43.876Z,13.43
2019-02-11T03:49:12.580Z,12.83
2019-02-11T03:51:41.262Z,10.47
2019-02-11T03:54:09.640Z,13.00
2019-02-11T03:56:38.011Z,12.37
2019-02-11T03:59:06.385Z,14.77
2019-02-11T04:01:35.063Z,10.67
2019-02-11T04:04:03.468Z,11.03
2019-02-11T04:06:31.820Z,20.73
2019-02-11T04:09:00.186Z,17.97
2019-02-11T04:11:28.480Z,26.07
2019-02-11T04:13:56.876Z,13.87
2019-02-11T04:16:25.176Z,21.33
2019-02-11T04:18:53.466Z,16.03
2019-02-11T04:21:21.846Z,13.73
2019-02-11T04:23:50.215Z,12.20
2019-02-11T04:26:18.614Z,15.27
2019-02-11T04:28:46.981Z,19.03
2019-02-11T04:31:15.338Z,15.13
2019-02-11T04:33:43.711Z,21.93
2019-02-11T04:36:12.125Z,18.07
2019-02-11T04:38:40.482Z,17.63
2019-02-11T04:41:08.782Z,22.87
2019-02-11T04:43:37.079Z,22.13
2019-02-11T04:46:05.478Z,15.77
2019-02-11T04:48:33.859Z,24.07
2019-02-11T04:51:02.253Z,29.27
2019-02-11T04:53:30.540Z,25.00
2019-02-11T04:55:58.910Z,17.67
2019-02-11T04:58:27.580Z,23.33
2019-02-11T05:00:55.873Z,19.93
2019-02-11T05:03:24.260Z,16.90
2019-02-11T05:05:52.561Z,20.70
2019-02-11T05:08:20.918Z,15.07
2019-02-11T05:10:49.310Z,13.33
2019-02-11T05:13:17.671Z,20.57
2019-02-11T05:15:46.061Z,17.00
2019-02-11T05:18:16.776Z,28.23
2019-02-11T05:20:44.471Z,17.67
2019-02-11T05:23:12.787Z,24.83
2019-02-11T05:25:41.165Z,18.67
2019-02-11T05:28:09.933Z,15.27
2019-02-11T05:30:38.245Z,16.70
2019-02-11T05:33:06.669Z,17.50
2019-02-11T05:35:35.028Z,16.90
2019-02-11T05:38:03.441Z,22.30
2019-02-11T05:40:31.789Z,17.83
2019-02-11T05:43:00.156Z,17.23
2019-02-11T05:45:28.570Z,17.47
2019-02-11T05:47:56.935Z,19.73
2019-02-11T05:50:25.318Z,23.23
2019-02-11T05:52:54.032Z,24.83
2019-02-11T05:55:23.895Z,20.07
2019-02-11T05:57:52.483Z,28.13
2019-02-11T06:00:20.860Z,19.73
2019-02-11T06:02:49.552Z,24.87
2019-02-11T06:05:17.953Z,22.07
2019-02-11T06:07:46.300Z,24.07
2019-02-11T06:10:15.573Z,24.23
2019-02-11T06:12:43.936Z,21.87
2019-02-11T06:15:12.315Z,17.17
2019-02-11T06:17:40.697Z,26.13
2019-02-11T06:20:09.989Z,21.83
2019-02-11T06:22:38.705Z,23.90
2019-02-11T06:25:08.106Z,26.23
2019-02-11T06:27:36.876Z,24.67
2019-02-11T06:30:11.118Z,16.93
2019-02-11T06:32:39.495Z,21.23
2019-02-11T06:35:08.861Z,21.90
2019-02-11T06:37:37.252Z,26.43
2019-02-11T06:40:08.991Z,34.33
2019-02-11T06:42:37.513Z,31.93
2019-02-11T06:45:13.092Z,37.33
2019-02-11T06:47:38.449Z,23.13
2019-02-11T06:50:14.753Z,24.03
2019-02-11T06:52:43.027Z,18.70
2019-02-11T06:55:12.143Z,28.10
2019-02-11T06:57:40.530Z,19.40
2019-02-11T07:00:13.630Z,18.37
2019-02-11T07:02:42.010Z,27.20
2019-02-11T07:05:10.384Z,24.33
2019-02-11T07:07:38.712Z,22.60
2019-02-11T07:10:10.461Z,27.67
2019-02-11T07:12:38.816Z,23.03
2019-02-11T07:15:21.214Z,24.93
2019-02-11T07:17:43.423Z,27.80
2019-02-11T07:20:11.795Z,25.40
2019-02-11T07:22:40.147Z,30.77
2019-02-11T07:25:09.440Z,28.73
2019-02-11T07:27:37.799Z,23.63
2019-02-11T07:30:11.549Z,29.97
2019-02-11T07:32:39.917Z,31.50
2019-02-11T07:35:08.302Z,22.97
2019-02-11T07:37:36.667Z,26.30
2019-02-11T07:40:08.255Z,25.83
2019-02-11T07:42:38.277Z,26.60
2019-02-11T07:45:10.621Z,28.20
2019-02-11T07:47:39.449Z,23.60
2019-02-11T07:50:07.821Z,31.33
2019-02-11T07:52:36.607Z,24.47
2019-02-11T07:55:05.770Z,29.43
2019-02-11T07:57:34.134Z,29.97
2019-02-11T08:00:02.527Z,24.57
2019-02-11T08:02:30.898Z,31.33
2019-02-11T08:04:59.284Z,25.93
2019-02-11T08:07:27.643Z,28.63
2019-02-11T08:09:55.936Z,27.87
2019-02-11T08:12:24.287Z,22.73
2019-02-11T08:14:52.913Z,31.80
2019-02-11T08:17:21.306Z,28.93
2019-02-11T08:19:49.573Z,18.97
2019-02-11T08:22:17.907Z,23.10
2019-02-11T08:24:46.223Z,21.10
2019-02-11T08:27:14.586Z,28.70
2019-02-11T08:29:42.992Z,19.53
2019-02-11T08:32:11.424Z,17.60
2019-02-11T08:34:39.719Z,19.00
2019-02-11T08:37:08.095Z,21.50
2019-02-11T08:39:36.429Z,26.60
2019-02-11T08:42:04.782Z,21.00
2019-02-11T08:44:33.669Z,21.20
2019-02-11T08:47:02.241Z,21.83
2019-02-11T08:49:30.631Z,22.10
2019-02-11T08:51:58.965Z,20.13
2019-02-11T08:54:27.321Z,20.03
2019-02-11T08:56:57.377Z,25.43
2019-02-11T08:59:25.888Z,16.33
2019-02-11T09:01:54.258Z,15.87
2019-02-11T09:04:23.000Z,21.60
2019-02-11T09:06:51.394Z,14.83
2019-02-11T09:09:19.849Z,17.37
2019-02-11T09:11:48.247Z,16.37
2019-02-11T09:14:16.695Z,25.63
2019-02-11T09:16:45.074Z,19.50
2019-02-11T09:19:13.756Z,19.93
2019-02-11T09:21:42.142Z,22.83
2019-02-11T09:24:10.508Z,23.63
2019-02-11T09:26:38.844Z,21.50
2019-02-11T09:29:07.224Z,21.90
2019-02-11T09:31:35.600Z,23.63
2019-02-11T09:34:04.010Z,28.23
2019-02-11T09:36:32.484Z,24.60
2019-02-11T09:39:01.164Z,18.53
2019-02-11T09:41:29.453Z,21.43
2019-02-11T09:43:57.844Z,13.53
2019-02-11T09:46:26.177Z,21.83
2019-02-11T09:48:54.543Z,17.07
2019-02-11T09:51:24.754Z,20.97
2019-02-11T09:53:53.120Z,24.90
2019-02-11T09:56:21.504Z,18.67
2019-02-11T09:58:49.891Z,16.93
2019-02-11T10:01:18.250Z,25.73
2019-02-11T10:03:46.529Z,14.60
2019-02-11T10:06:14.851Z,18.13
2019-02-11T10:08:43.194Z,15.63
2019-02-11T10:11:11.515Z,18.00
2019-02-11T10:13:39.868Z,22.47
2019-02-11T10:16:12.616Z,12.80
2019-02-11T10:18:38.275Z,20.87
2019-02-11T10:21:06.641Z,19.27
2019-02-11T10:23:35.004Z,16.27
2019-02-11T10:26:03.415Z,20.43
2019-02-11T10:28:31.722Z,15.80
2019-02-11T10:31:00.412Z,14.20
2019-02-11T10:33:28.787Z,15.57
2019-02-11T10:35:57.168Z,19.33
2019-02-11T10:38:25.546Z,18.83
2019-02-11T10:40:53.909Z,20.50
2019-02-11T10:43:22.297Z,17.07
2019-02-11T10:45:50.681Z,20.50
2019-02-11T10:48:19.089Z,11.93
2019-02-11T10:50:47.457Z,21.27
2019-02-11T10:53:16.209Z,19.07
2019-02-11T10:55:44.605Z,15.17
2019-02-11T10:58:12.970Z,13.20
2019-02-11T11:00:41.602Z,19.30
2019-02-11T11:03:09.932Z,17.13
2019-02-11T11:05:38.290Z,20.67
2019-02-11T11:08:06.964Z,17.83
2019-02-11T11:10:37.561Z,7.33
2019-02-11T11:13:05.954Z,12.93
2019-02-11T11:15:34.312Z,13.77
2019-02-11T11:18:02.697Z,10.23
2019-02-11T11:20:31.405Z,15.23
2019-02-11T11:22:59.774Z,9.33
2019-02-11T11:25:28.043Z,10.97
2019-02-11T11:27:56.329Z,7.53
2019-02-11T11:30:24.637Z,14.90
2019-02-11T11:32:52.975Z,12.33
2019-02-11T11:35:21.347Z,11.00
2019-02-11T11:37:49.733Z,9.43
2019-02-11T11:40:21.931Z,6.97
2019-02-11T11:42:50.576Z,6.03
2019-02-11T11:45:19.645Z,9.23
2019-02-11T11:47:47.983Z,13.10
2019-02-11T11:50:17.150Z,8.73
2019-02-11T11:52:45.781Z,4.43
2019-02-11T11:55:18.606Z,7.50
2019-02-11T11:57:47.006Z,7.17
2019-02-11T12:00:18.633Z,14.57
2019-02-11T12:03:00.259Z,9.83
2019-02-11T12:05:17.145Z,9.60
2019-02-11T12:07:45.619Z,16.90
2019-02-11T12:10:13.983Z,11.80
2019-02-11T12:12:42.356Z,11.33
2019-02-11T12:15:12.996Z,13.97
2019-02-11T12:17:41.801Z,9.30
2019-02-11T12:20:12.162Z,6.27
2019-02-11T12:22:40.526Z,7.23
2019-02-11T12:25:11.270Z,11.60
2019-02-11T12:27:39.723Z,5.53
2019-02-11T12:30:14.066Z,9.83
2019-02-11T12:32:42.484Z,7.10
2019-02-11T12:35:12.800Z,7.53
2019-02-11T12:37:41.169Z,7.63
2019-02-11T12:40:11.214Z,10.37
2019-02-11T12:42:39.590Z,9.43
2019-02-11T12:45:11.311Z,7.57
2019-02-11T12:47:39.676Z,5.03
2019-02-11T12:50:13.166Z,6.37
2019-02-11T12:52:41.498Z,7.77
2019-02-11T12:55:15.030Z,10.53
2019-02-11T12:57:43.429Z,11.63
2019-02-11T13:00:17.013Z,8.50
2019-02-11T13:02:44.547Z,6.47
2019-02-11T13:05:12.980Z,8.77
2019-02-11T13:07:41.363Z,12.37
2019-02-11T13:10:13.430Z,9.47
2019-02-11T13:12:41.808Z,12.00
2019-02-11T13:15:11.852Z,9.30
2019-02-11T13:17:40.565Z,12.57
2019-02-11T13:20:12.063Z,11.80
2019-02-11T13:22:40.784Z,11.90
2019-02-11T13:25:17.301Z,9.10
2019-02-11T13:27:45.662Z,7.40
2019-02-11T13:30:24.495Z,8.67
2019-02-11T13:32:52.881Z,5.87
2019-02-11T13:35:21.254Z,6.03
2019-02-11T13:37:54.312Z,8.00
2019-02-11T13:40:19.973Z,6.63
2019-02-11T13:42:48.348Z,7.13
2019-02-11T13:45:21.097Z,8.87
2019-02-11T13:47:54.661Z,9.10
2019-02-11T13:50:24.633Z,10.70
2019-02-11T13:52:53.078Z,13.03
2019-02-11T13:55:21.593Z,9.13
2019-02-11T13:57:49.976Z,7.83
2019-02-11T14:00:27.539Z,11.80
2019-02-11T14:02:58.545Z,9.27
2019-02-11T14:05:27.866Z,6.37
2019-02-11T14:07:56.517Z,7.17
2019-02-11T14:10:24.876Z,11.40
2019-02-11T14:12:53.268Z,9.03
2019-02-11T14:15:21.819Z,11.70
2019-02-11T14:17:50.175Z,12.37
2019-02-11T14:20:21.348Z,12.60
2019-02-11T14:22:49.671Z,10.80
2019-02-11T14:25:18.031Z,13.67
2019-02-11T14:27:46.430Z,12.63
2019-02-11T14:30:19.953Z,10.73
2019-02-11T14:32:48.366Z,5.93
2019-02-11T14:35:17.693Z,11.73
2019-02-11T14:37:46.040Z,17.17
2019-02-11T14:40:14.897Z,20.13
2019-02-11T14:42:43.354Z,11.10
2019-02-11T14:45:17.167Z,15.77
2019-02-11T14:47:45.561Z,17.27
2019-02-11T14:50:13.919Z,9.20
2019-02-11T14:52:42.314Z,13.50
2019-02-11T14:55:11.114Z,17.87
2019-02-11T14:57:39.460Z,11.17
2019-02-11T15:00:20.019Z,22.80
2019-02-11T15:02:48.397Z,13.73
2019-02-11T15:05:17.224Z,19.37
2019-02-11T15:07:45.600Z,13.83
2019-02-11T15:10:14.449Z,10.37
2019-02-11T15:12:42.814Z,20.40
2019-02-11T15:15:12.219Z,14.77
2019-02-11T15:17:43.026Z,13.33
2019-02-11T15:20:13.040Z,15.50
2019-02-11T15:22:41.401Z,12.13
2019-02-11T15:25:12.041Z,16.77
2019-02-11T15:27:40.378Z,8.30
2019-02-11T15:30:11.580Z,12.57
2019-02-11T15:32:39.950Z,10.20
2019-02-11T15:35:09.090Z,12.83
2019-02-11T15:37:37.451Z,11.63
2019-02-11T15:40:14.679Z,12.37
2019-02-11T15:42:43.048Z,16.73
2019-02-11T15:45:13.284Z,12.57
2019-02-11T15:47:41.658Z,13.00
2019-02-11T15:50:12.764Z,9.83
2019-02-11T15:52:41.162Z,13.00
2019-02-11T15:55:20.617Z,13.93
2019-02-11T15:57:48.932Z,15.33
2019-02-11T16:00:19.959Z,10.77
2019-02-11T16:02:48.323Z,18.97
2019-02-11T16:05:16.997Z,15.03
2019-02-11T16:07:45.591Z,22.83
2019-02-11T16:10:16.228Z,20.27
2019-02-11T16:12:44.602Z,12.87
2019-02-11T16:15:12.977Z,13.10
2019-02-11T16:17:41.361Z,16.23
2019-02-11T16:20:14.956Z,15.63
2019-02-11T16:22:43.488Z,13.70
2019-02-11T16:25:13.702Z,14.60
2019-02-11T16:27:42.072Z,16.70
2019-02-11T16:30:12.904Z,14.17
2019-02-11T16:32:41.288Z,13.43
2019-02-11T16:35:11.429Z,20.23
2019-02-11T16:37:39.799Z,15.10
2019-02-11T16:40:11.477Z,23.63
2019-02-11T16:42:39.867Z,13.77
2019-02-11T16:45:10.283Z,16.67
2019-02-11T16:47:38.678Z,15.17
2019-02-11T16:50:09.682Z,16.77
2019-02-11T16:52:38.075Z,17.27
2019-02-11T16:55:08.861Z,21.07
2019-02-11T16:57:37.197Z,21.10
2019-02-11T17:00:14.750Z,24.90
2019-02-11T17:02:43.112Z,38.07
2019-02-11T17:05:12.027Z,40.33
2019-02-11T17:07:41.932Z,21.97
2019-02-11T17:10:12.153Z,24.10
2019-02-11T17:12:40.551Z,19.47
2019-02-11T17:15:11.262Z,22.00
2019-02-11T17:17:39.653Z,29.13
2019-02-11T17:20:10.165Z,26.37
2019-02-11T17:22:38.542Z,19.63
2019-02-11T17:25:09.074Z,18.17
2019-02-11T17:27:37.327Z,19.50
2019-02-11T17:30:11.471Z,19.37
2019-02-11T17:32:39.792Z,18.60
2019-02-11T17:35:10.073Z,24.50
2019-02-11T17:37:38.853Z,26.50
2019-02-11T17:40:12.908Z,26.27
2019-02-11T17:42:41.303Z,30.20
2019-02-11T17:45:12.948Z,24.97
2019-02-11T17:47:41.315Z,25.70
2019-02-11T17:50:10.840Z,24.57
2019-02-11T17:52:39.197Z,21.13
2019-02-11T17:55:12.368Z,25.67
2019-02-11T17:57:40.746Z,18.60
2019-02-11T18:00:13.993Z,30.83
2019-02-11T18:02:42.330Z,32.93
2019-02-11T18:05:10.769Z,28.43
2019-02-11T18:07:39.157Z,31.90
2019-02-11T18:10:07.518Z,25.50
2019-02-11T18:12:35.929Z,32.70
2019-02-11T18:15:05.296Z,26.00
2019-02-11T18:17:33.636Z,35.20
2019-02-11T18:20:02.025Z,29.77
2019-02-11T18:22:30.527Z,40.77
2019-02-11T18:24:58.872Z,99.03
2019-02-11T18:27:27.642Z,119.23
2019-02-11T18:29:56.007Z,74.73
2019-02-11T18:32:24.397Z,38.63
2019-02-11T18:34:52.694Z,35.47
2019-02-11T18:37:21.113Z,26.73
2019-02-11T18:39:49.470Z,36.37
2019-02-11T18:42:17.792Z,33.90
2019-02-11T18:44:46.159Z,45.63
2019-02-11T18:47:14.530Z,29.10
2019-02-11T18:49:42.900Z,32.03
2019-02-11T18:52:11.279Z,27.60
2019-02-11T18:54:39.727Z,31.63
2019-02-11T18:57:08.093Z,34.60
2019-02-11T18:59:36.462Z,32.00
2019-02-11T19:02:04.835Z,31.83
2019-02-11T19:04:33.215Z,37.83
2019-02-11T19:07:01.621Z,28.37
2019-02-11T19:09:29.935Z,37.60
2019-02-11T19:11:58.300Z,28.47
2019-02-11T19:14:26.646Z,28.07
2019-02-11T19:16:54.966Z,31.93
2019-02-11T19:19:23.698Z,24.10
2019-02-11T19:21:52.077Z,41.40
2019-02-11T19:24:20.375Z,35.23
2019-02-11T19:26:48.700Z,35.90
2019-02-11T19:29:17.117Z,34.93
2019-02-11T19:31:45.514Z,35.57
2019-02-11T19:34:13.879Z,42.23
2019-02-11T19:36:42.255Z,36.07
2019-02-11T19:39:10.849Z,60.47
2019-02-11T19:41:39.297Z,51.00
2019-02-11T19:44:07.659Z,40.60
2019-02-11T19:46:35.994Z,42.07
2019-02-11T19:49:04.289Z,61.80
2019-02-11T19:51:32.758Z,48.90
2019-02-11T19:54:01.466Z,45.67
2019-02-11T19:56:29.869Z,42.57
2019-02-11T19:58:58.232Z,55.33
2019-02-11T20:01:26.645Z,35.50
2019-02-11T20:03:54.999Z,37.97
2019-02-11T20:06:23.753Z,32.83
2019-02-11T20:08:52.152Z,37.10
2019-02-11T20:11:20.594Z,38.93
2019-02-11T20:13:48.975Z,41.40
2019-02-11T20:16:17.353Z,43.97
2019-02-11T20:18:45.730Z,33.67
2019-02-11T20:21:14.126Z,32.60
2019-02-11T20:23:42.494Z,78.77
2019-02-11T20:26:10.917Z,49.03
2019-02-11T20:28:39.326Z,40.50
2019-02-11T20:31:07.642Z,37.23
2019-02-11T20:33:36.030Z,38.60
2019-02-11T20:36:04.393Z,45.93
2019-02-11T20:38:32.805Z,33.90
2019-02-11T20:41:01.180Z,45.57
2019-02-11T20:43:29.549Z,42.40
2019-02-11T20:45:57.934Z,42.30
2019-02-11T20:48:26.318Z,48.30
2019-02-11T20:50:54.593Z,45.77
2019-02-11T20:53:22.925Z,54.00
2019-02-11T20:55:51.234Z,54.53
2019-02-11T20:58:19.571Z,58.73
2019-02-11T21:00:47.923Z,95.90
2019-02-11T21:03:16.237Z,75.63
2019-02-11T21:05:44.531Z,64.23
2019-02-11T21:08:12.893Z,60.87
2019-02-11T21:10:41.287Z,56.00
2019-02-11T21:13:09.648Z,46.97
2019-02-11T21:15:38.062Z,53.47
2019-02-11T21:18:06.434Z,45.00
2019-02-11T21:20:38.207Z,43.03
2019-02-11T21:23:08.297Z,46.83
2019-02-11T21:25:36.785Z,49.67
2019-02-11T21:28:05.157Z,51.37
2019-02-11T21:30:33.533Z,53.80
2019-02-11T21:33:02.390Z,56.60
2019-02-11T21:35:30.714Z,58.87
2019-02-11T21:37:59.113Z,66.93
2019-02-11T21:40:27.828Z,59.43
2019-02-11T21:42:56.190Z,58.90
2019-02-11T21:45:24.487Z,59.50
2019-02-11T21:47:52.854Z,58.93
2019-02-11T21:50:26.790Z,61.63
2019-02-11T21:52:51.773Z,54.90
2019-02-11T21:55:22.090Z,58.67
2019-02-11T21:57:50.484Z,49.97
2019-02-11T22:00:21.154Z,65.63
2019-02-11T22:02:49.451Z,60.60
2019-02-11T22:05:17.778Z,54.97
2019-02-11T22:07:46.149Z,63.03
2019-02-11T22:10:19.455Z,109.87
2019-02-11T22:12:47.844Z,108.50
2019-02-11T22:15:16.246Z,83.97
2019-02-11T22:17:44.538Z,84.40
2019-02-11T22:20:16.178Z,78.07
2019-02-11T22:22:44.747Z,83.17
2019-02-11T22:25:13.675Z,88.37
2019-02-11T22:27:42.050Z,90.97
2019-02-11T22:30:16.739Z,86.13
2019-02-11T22:32:45.122Z,85.57
2019-02-11T22:35:13.484Z,82.50
2019-02-11T22:37:41.888Z,90.10
2019-02-11T22:40:12.316Z,110.73
2019-02-11T22:42:40.696Z,71.20
2019-02-11T22:45:12.064Z,91.20
2019-02-11T22:47:40.790Z,92.53
2019-02-11T22:50:11.594Z,82.30
2019-02-11T22:52:39.989Z,94.73
2019-02-11T22:55:12.857Z,93.97
2019-02-11T22:57:41.570Z,96.57
2019-02-11T23:00:26.493Z,93.37
2019-02-11T23:02:54.898Z,83.10
2019-02-11T23:05:23.207Z,104.63
2019-02-11T23:07:51.584Z,108.50
2019-02-11T23:10:19.998Z,74.93
2019-02-11T23:12:48.375Z,64.03
2019-02-11T23:15:16.736Z,74.07
2019-02-11T23:17:45.056Z,125.43
2019-02-11T23:20:13.433Z,96.77
2019-02-11T23:22:41.859Z,86.03
2019-02-11T23:25:10.509Z,60.03
2019-02-11T23:27:38.885Z,75.97
2019-02-11T23:30:13.465Z,80.00
2019-02-11T23:32:38.349Z,71.97
2019-02-11T23:35:06.787Z,47.27
2019-02-11T23:37:35.528Z,73.03
2019-02-11T23:40:05.957Z,98.33
2019-02-11T23:42:34.639Z,91.83
2019-02-11T23:45:03.088Z,102.60
2019-02-11T23:47:31.484Z,157.43
2019-02-11T23:49:59.860Z,79.10
2019-02-11T23:52:28.269Z,175.20
2019-02-11T23:54:56.646Z,83.40
2019-02-11T23:57:24.997Z,54.47
2019-02-11T23:59:53.788Z,56.63
